sensor_id;sensor_type;location;lat;lon;timestamp;P1;durP1;ratioP1;P2;durP2;ratioP2
61477;SDS011;47345;52.334;10.392;2023-08-21T00:00:14;7.40;;;4.90;;
61477;SDS011;47345;52.334;10.392;2023-08-21T00:02:45;9.70;;;5.10;;
61477;SDS011;47345;52.334;10.392;2023-08-21T00:05:16;9.60;;;4.90;;
61477;SDS011;47345;52.334;10.392;2023-08-21T00:07:47;6.20;;;4.90;;
61477;SDS011;47345;52.334;10.392;2023-08-21T00:10:19;6.10;;;4.90;;
61477;SDS011;47345;52.334;10.392;2023-08-21T00:12:49;9.40;;;5.00;;
61477;SDS011;47345;52.334;10.392;2023-08-21T00:15:20;7.80;;;5.10;;
61477;SDS011;47345;52.334;10.392;2023-08-21T00:17:51;10.00;;;4.90;;
61477;SDS011;47345;52.334;10.392;2023-08-21T00:20:22;9.60;;;4.80;;
61477;SDS011;47345;52.334;10.392;2023-08-21T00:22:53;11.30;;;5.10;;
61477;SDS011;47345;52.334;10.392;2023-08-21T00:25:24;5.40;;;4.70;;
61477;SDS011;47345;52.334;10.392;2023-08-21T00:27:55;9.50;;;5.00;;
61477;SDS011;47345;52.334;10.392;2023-08-21T00:30:26;9.90;;;5.40;;
61477;SDS011;47345;52.334;10.392;2023-08-21T00:32:56;10.10;;;5.70;;
61477;SDS011;47345;52.334;10.392;2023-08-21T00:35:27;8.90;;;5.30;;
61477;SDS011;47345;52.334;10.392;2023-08-21T00:37:58;7.30;;;5.30;;
61477;SDS011;47345;52.334;10.392;2023-08-21T00:40:29;7.30;;;4.90;;
61477;SDS011;47345;52.334;10.392;2023-08-21T00:43:01;7.70;;;4.80;;
61477;SDS011;47345;52.334;10.392;2023-08-21T00:45:32;6.70;;;4.80;;
61477;SDS011;47345;52.334;10.392;2023-08-21T00:48:04;11.20;;;5.30;;
61477;SDS011;47345;52.334;10.392;2023-08-21T00:50:36;9.50;;;5.30;;
61477;SDS011;47345;52.334;10.392;2023-08-21T00:53:07;9.00;;;5.20;;
61477;SDS011;47345;52.334;10.392;2023-08-21T00:55:39;7.30;;;5.50;;
61477;SDS011;47345;52.334;10.392;2023-08-21T00:58:10;10.70;;;5.30;;
61477;SDS011;47345;52.334;10.392;2023-08-21T01:00:42;9.20;;;5.40;;
61477;SDS011;47345;52.334;10.392;2023-08-21T01:03:18;9.50;;;5.40;;
61477;SDS011;47345;52.334;10.392;2023-08-21T01:05:49;7.80;;;5.10;;
61477;SDS011;47345;52.334;10.392;2023-08-21T01:08:21;10.50;;;5.40;;
61477;SDS011;47345;52.334;10.392;2023-08-21T01:10:58;9.00;;;5.60;;
61477;SDS011;47345;52.334;10.392;2023-08-21T01:13:40;9.60;;;5.30;;
61477;SDS011;47345;52.334;10.392;2023-08-21T01:16:19;5.50;;;4.30;;
61477;SDS011;47345;52.334;10.392;2023-08-21T01:18:51;6.20;;;4.40;;
61477;SDS011;47345;52.334;10.392;2023-08-21T01:21:25;6.80;;;4.90;;
61477;SDS011;47345;52.334;10.392;2023-08-21T01:23:57;7.80;;;4.80;;
61477;SDS011;47345;52.334;10.392;2023-08-21T01:26:28;7.80;;;5.20;;
61477;SDS011;47345;52.334;10.392;2023-08-21T01:28:59;8.90;;;5.70;;
61477;SDS011;47345;52.334;10.392;2023-08-21T01:31:31;7.10;;;4.90;;
61477;SDS011;47345;52.334;10.392;2023-08-21T01:34:06;9.20;;;5.60;;
61477;SDS011;47345;52.334;10.392;2023-08-21T01:36:40;14.20;;;5.30;;
61477;SDS011;47345;52.334;10.392;2023-08-21T01:39:12;8.90;;;5.00;;
61477;SDS011;47345;52.334;10.392;2023-08-21T01:41:43;6.80;;;4.80;;
61477;SDS011;47345;52.334;10.392;2023-08-21T01:44:15;8.90;;;5.50;;
61477;SDS011;47345;52.334;10.392;2023-08-21T01:46:46;11.50;;;4.90;;
61477;SDS011;47345;52.334;10.392;2023-08-21T01:49:17;8.60;;;5.50;;
61477;SDS011;47345;52.334;10.392;2023-08-21T01:51:47;10.90;;;4.90;;
61477;SDS011;47345;52.334;10.392;2023-08-21T01:54:18;9.20;;;5.10;;
61477;SDS011;47345;52.334;10.392;2023-08-21T01:56:49;7.10;;;5.20;;
61477;SDS011;47345;52.334;10.392;2023-08-21T01:59:21;9.10;;;5.00;;
61477;SDS011;47345;52.334;10.392;2023-08-21T02:01:52;9.40;;;5.60;;
61477;SDS011;47345;52.334;10.392;2023-08-21T02:04:23;6.80;;;5.00;;
61477;SDS011;47345;52.334;10.392;2023-08-21T02:06:53;7.60;;;5.60;;
61477;SDS011;47345;52.334;10.392;2023-08-21T02:09:25;9.70;;;5.20;;
61477;SDS011;47345;52.334;10.392;2023-08-21T02:11:55;7.00;;;5.60;;
61477;SDS011;47345;52.334;10.392;2023-08-21T02:14:26;11.20;;;5.40;;
61477;SDS011;47345;52.334;10.392;2023-08-21T02:16:57;7.80;;;5.90;;
61477;SDS011;47345;52.334;10.392;2023-08-21T02:19:28;7.60;;;5.90;;
61477;SDS011;47345;52.334;10.392;2023-08-21T02:21:59;10.60;;;5.80;;
61477;SDS011;47345;52.334;10.392;2023-08-21T02:24:30;9.00;;;5.80;;
61477;SDS011;47345;52.334;10.392;2023-08-21T02:27:00;8.40;;;5.50;;
61477;SDS011;47345;52.334;10.392;2023-08-21T02:29:32;9.10;;;5.90;;
61477;SDS011;47345;52.334;10.392;2023-08-21T02:32:03;8.50;;;5.60;;
61477;SDS011;47345;52.334;10.392;2023-08-21T02:34:34;6.70;;;5.10;;
61477;SDS011;47345;52.334;10.392;2023-08-21T02:37:05;10.10;;;5.80;;
61477;SDS011;47345;52.334;10.392;2023-08-21T02:39:36;8.50;;;5.50;;
61477;SDS011;47345;52.334;10.392;2023-08-21T02:42:07;10.40;;;5.60;;
61477;SDS011;47345;52.334;10.392;2023-08-21T02:44:38;9.40;;;5.50;;
61477;SDS011;47345;52.334;10.392;2023-08-21T02:47:10;6.60;;;5.60;;
61477;SDS011;47345;52.334;10.392;2023-08-21T02:49:40;9.40;;;5.60;;
61477;SDS011;47345;52.334;10.392;2023-08-21T02:52:11;6.60;;;5.20;;
61477;SDS011;47345;52.334;10.392;2023-08-21T02:54:42;10.10;;;5.70;;
61477;SDS011;47345;52.334;10.392;2023-08-21T02:57:13;8.70;;;5.90;;
61477;SDS011;47345;52.334;10.392;2023-08-21T02:59:44;8.90;;;5.70;;
61477;SDS011;47345;52.334;10.392;2023-08-21T03:02:15;9.50;;;5.70;;
61477;SDS011;47345;52.334;10.392;2023-08-21T03:04:46;8.00;;;5.10;;
61477;SDS011;47345;52.334;10.392;2023-08-21T03:07:17;11.10;;;5.30;;
61477;SDS011;47345;52.334;10.392;2023-08-21T03:09:49;8.20;;;5.10;;
61477;SDS011;47345;52.334;10.392;2023-08-21T03:12:20;6.90;;;5.20;;
61477;SDS011;47345;52.334;10.392;2023-08-21T03:14:51;13.10;;;5.40;;
61477;SDS011;47345;52.334;10.392;2023-08-21T03:17:22;7.10;;;5.20;;
61477;SDS011;47345;52.334;10.392;2023-08-21T03:19:53;7.10;;;5.00;;
61477;SDS011;47345;52.334;10.392;2023-08-21T03:22:23;8.20;;;5.00;;
61477;SDS011;47345;52.334;10.392;2023-08-21T03:24:54;6.10;;;4.90;;
61477;SDS011;47345;52.334;10.392;2023-08-21T03:27:25;8.00;;;5.00;;
61477;SDS011;47345;52.334;10.392;2023-08-21T03:29:56;9.00;;;6.20;;
61477;SDS011;47345;52.334;10.392;2023-08-21T03:32:29;10.70;;;5.80;;
61477;SDS011;47345;52.334;10.392;2023-08-21T03:35:01;7.80;;;5.80;;
61477;SDS011;47345;52.334;10.392;2023-08-21T03:37:33;9.10;;;6.30;;
61477;SDS011;47345;52.334;10.392;2023-08-21T03:40:04;7.60;;;5.50;;
61477;SDS011;47345;52.334;10.392;2023-08-21T03:42:36;8.10;;;6.40;;
61477;SDS011;47345;52.334;10.392;2023-08-21T03:45:08;9.30;;;6.90;;
61477;SDS011;47345;52.334;10.392;2023-08-21T03:47:39;16.20;;;7.40;;
61477;SDS011;47345;52.334;10.392;2023-08-21T03:50:10;10.80;;;8.10;;
61477;SDS011;47345;52.334;10.392;2023-08-21T03:52:41;13.60;;;7.20;;
61477;SDS011;47345;52.334;10.392;2023-08-21T03:55:11;8.70;;;6.60;;
61477;SDS011;47345;52.334;10.392;2023-08-21T03:57:42;10.10;;;7.00;;
61477;SDS011;47345;52.334;10.392;2023-08-21T04:00:14;9.10;;;5.90;;
61477;SDS011;47345;52.334;10.392;2023-08-21T04:02:44;11.00;;;5.70;;
61477;SDS011;47345;52.334;10.392;2023-08-21T04:05:16;9.10;;;5.40;;
61477;SDS011;47345;52.334;10.392;2023-08-21T04:07:47;14.50;;;5.90;;
61477;SDS011;47345;52.334;10.392;2023-08-21T04:10:19;10.80;;;6.40;;
61477;SDS011;47345;52.334;10.392;2023-08-21T04:12:50;12.20;;;6.30;;
61477;SDS011;47345;52.334;10.392;2023-08-21T04:15:20;7.60;;;5.70;;
61477;SDS011;47345;52.334;10.392;2023-08-21T04:17:51;10.00;;;5.70;;
61477;SDS011;47345;52.334;10.392;2023-08-21T04:20:23;7.30;;;5.90;;
61477;SDS011;47345;52.334;10.392;2023-08-21T04:22:53;9.80;;;5.80;;
61477;SDS011;47345;52.334;10.392;2023-08-21T04:25:24;11.10;;;6.40;;
61477;SDS011;47345;52.334;10.392;2023-08-21T04:27:55;11.70;;;5.70;;
61477;SDS011;47345;52.334;10.392;2023-08-21T04:30:26;9.50;;;5.30;;
61477;SDS011;47345;52.334;10.392;2023-08-21T04:32:57;10.20;;;5.70;;
61477;SDS011;47345;52.334;10.392;2023-08-21T04:35:28;9.70;;;5.20;;
61477;SDS011;47345;52.334;10.392;2023-08-21T04:38:04;11.90;;;5.20;;
61477;SDS011;47345;52.334;10.392;2023-08-21T04:40:36;6.80;;;5.20;;
61477;SDS011;47345;52.334;10.392;2023-08-21T04:43:07;6.20;;;5.00;;
61477;SDS011;47345;52.334;10.392;2023-08-21T04:45:37;8.60;;;5.00;;
61477;SDS011;47345;52.334;10.392;2023-08-21T04:48:14;24.40;;;15.90;;
61477;SDS011;47345;52.334;10.392;2023-08-21T04:50:45;12.00;;;9.20;;
61477;SDS011;47345;52.334;10.392;2023-08-21T04:53:16;12.20;;;7.70;;
61477;SDS011;47345;52.334;10.392;2023-08-21T04:55:47;9.80;;;6.40;;
61477;SDS011;47345;52.334;10.392;2023-08-21T04:58:19;12.80;;;6.00;;
61477;SDS011;47345;52.334;10.392;2023-08-21T05:00:49;12.30;;;5.70;;
61477;SDS011;47345;52.334;10.392;2023-08-21T05:03:20;8.80;;;6.20;;
61477;SDS011;47345;52.334;10.392;2023-08-21T05:05:54;10.90;;;5.90;;
61477;SDS011;47345;52.334;10.392;2023-08-21T05:08:25;7.40;;;5.80;;
61477;SDS011;47345;52.334;10.392;2023-08-21T05:10:56;10.20;;;5.70;;
61477;SDS011;47345;52.334;10.392;2023-08-21T05:13:27;9.40;;;5.00;;
61477;SDS011;47345;52.334;10.392;2023-08-21T05:15:58;5.90;;;5.00;;
61477;SDS011;47345;52.334;10.392;2023-08-21T05:18:31;9.60;;;4.90;;
61477;SDS011;47345;52.334;10.392;2023-08-21T05:21:02;10.20;;;5.20;;
61477;SDS011;47345;52.334;10.392;2023-08-21T05:23:33;11.30;;;4.90;;
61477;SDS011;47345;52.334;10.392;2023-08-21T05:26:03;9.10;;;5.50;;
61477;SDS011;47345;52.334;10.392;2023-08-21T05:28:34;10.40;;;5.40;;
61477;SDS011;47345;52.334;10.392;2023-08-21T05:31:05;8.10;;;5.40;;
61477;SDS011;47345;52.334;10.392;2023-08-21T05:33:36;11.60;;;5.50;;
61477;SDS011;47345;52.334;10.392;2023-08-21T05:36:07;8.10;;;5.30;;
61477;SDS011;47345;52.334;10.392;2023-08-21T05:38:37;9.50;;;5.30;;
61477;SDS011;47345;52.334;10.392;2023-08-21T05:41:08;8.20;;;5.50;;
61477;SDS011;47345;52.334;10.392;2023-08-21T05:43:39;7.60;;;5.20;;
61477;SDS011;47345;52.334;10.392;2023-08-21T05:46:10;7.20;;;4.90;;
61477;SDS011;47345;52.334;10.392;2023-08-21T05:48:41;11.40;;;5.00;;
61477;SDS011;47345;52.334;10.392;2023-08-21T05:51:12;7.60;;;5.10;;
61477;SDS011;47345;52.334;10.392;2023-08-21T05:53:42;9.10;;;5.50;;
61477;SDS011;47345;52.334;10.392;2023-08-21T05:56:13;11.00;;;5.00;;
61477;SDS011;47345;52.334;10.392;2023-08-21T05:58:44;8.50;;;6.10;;
61477;SDS011;47345;52.334;10.392;2023-08-21T06:01:15;8.80;;;5.20;;
61477;SDS011;47345;52.334;10.392;2023-08-21T06:03:46;6.00;;;4.90;;
61477;SDS011;47345;52.334;10.392;2023-08-21T06:06:16;10.70;;;5.30;;
61477;SDS011;47345;52.334;10.392;2023-08-21T06:08:47;7.80;;;5.10;;
61477;SDS011;47345;52.334;10.392;2023-08-21T06:11:18;7.90;;;5.60;;
61477;SDS011;47345;52.334;10.392;2023-08-21T06:13:49;13.60;;;5.10;;
61477;SDS011;47345;52.334;10.392;2023-08-21T06:16:21;8.20;;;5.20;;
61477;SDS011;47345;52.334;10.392;2023-08-21T06:18:53;8.40;;;5.10;;
61477;SDS011;47345;52.334;10.392;2023-08-21T06:21:24;8.60;;;5.00;;
61477;SDS011;47345;52.334;10.392;2023-08-21T06:23:55;9.40;;;4.60;;
61477;SDS011;47345;52.334;10.392;2023-08-21T06:26:26;8.90;;;5.30;;
61477;SDS011;47345;52.334;10.392;2023-08-21T06:28:57;8.90;;;4.90;;
61477;SDS011;47345;52.334;10.392;2023-08-21T06:31:28;11.50;;;5.00;;
61477;SDS011;47345;52.334;10.392;2023-08-21T06:33:59;10.30;;;5.20;;
61477;SDS011;47345;52.334;10.392;2023-08-21T06:36:30;8.90;;;5.10;;
61477;SDS011;47345;52.334;10.392;2023-08-21T06:39:01;7.70;;;4.70;;
61477;SDS011;47345;52.334;10.392;2023-08-21T06:41:32;9.10;;;4.50;;
61477;SDS011;47345;52.334;10.392;2023-08-21T06:44:03;8.60;;;5.30;;
61477;SDS011;47345;52.334;10.392;2023-08-21T06:46:33;10.40;;;4.60;;
61477;SDS011;47345;52.334;10.392;2023-08-21T06:49:04;7.70;;;4.70;;
61477;SDS011;47345;52.334;10.392;2023-08-21T06:51:35;10.50;;;5.20;;
61477;SDS011;47345;52.334;10.392;2023-08-21T06:54:05;7.30;;;4.30;;
61477;SDS011;47345;52.334;10.392;2023-08-21T06:56:37;6.50;;;4.30;;
61477;SDS011;47345;52.334;10.392;2023-08-21T06:59:08;6.20;;;4.10;;
61477;SDS011;47345;52.334;10.392;2023-08-21T07:01:39;5.50;;;4.00;;
61477;SDS011;47345;52.334;10.392;2023-08-21T07:04:10;10.90;;;4.00;;
61477;SDS011;47345;52.334;10.392;2023-08-21T07:06:41;5.70;;;3.70;;
61477;SDS011;47345;52.334;10.392;2023-08-21T07:09:13;6.20;;;3.40;;
61477;SDS011;47345;52.334;10.392;2023-08-21T07:11:44;7.00;;;3.40;;
61477;SDS011;47345;52.334;10.392;2023-08-21T07:14:14;6.90;;;3.30;;
61477;SDS011;47345;52.334;10.392;2023-08-21T07:16:46;7.70;;;3.30;;
61477;SDS011;47345;52.334;10.392;2023-08-21T07:19:18;6.20;;;3.50;;
61477;SDS011;47345;52.334;10.392;2023-08-21T07:21:48;5.30;;;2.90;;
61477;SDS011;47345;52.334;10.392;2023-08-21T07:24:19;4.10;;;2.50;;
61477;SDS011;47345;52.334;10.392;2023-08-21T07:26:50;6.80;;;2.40;;
61477;SDS011;47345;52.334;10.392;2023-08-21T07:29:21;4.70;;;2.60;;
61477;SDS011;47345;52.334;10.392;2023-08-21T07:31:52;3.80;;;2.40;;
61477;SDS011;47345;52.334;10.392;2023-08-21T07:34:23;5.70;;;2.50;;
61477;SDS011;47345;52.334;10.392;2023-08-21T07:36:53;7.30;;;2.50;;
61477;SDS011;47345;52.334;10.392;2023-08-21T07:39:24;6.90;;;2.10;;
61477;SDS011;47345;52.334;10.392;2023-08-21T07:41:55;6.80;;;2.30;;
61477;SDS011;47345;52.334;10.392;2023-08-21T07:44:26;3.70;;;2.40;;
61477;SDS011;47345;52.334;10.392;2023-08-21T07:46:57;4.00;;;2.20;;
61477;SDS011;47345;52.334;10.392;2023-08-21T07:49:28;4.30;;;2.60;;
61477;SDS011;47345;52.334;10.392;2023-08-21T07:51:59;6.90;;;2.70;;
61477;SDS011;47345;52.334;10.392;2023-08-21T07:54:31;9.00;;;2.50;;
61477;SDS011;47345;52.334;10.392;2023-08-21T07:57:02;5.90;;;2.70;;
61477;SDS011;47345;52.334;10.392;2023-08-21T07:59:34;5.00;;;2.50;;
61477;SDS011;47345;52.334;10.392;2023-08-21T08:02:05;7.60;;;2.90;;
61477;SDS011;47345;52.334;10.392;2023-08-21T08:04:36;6.30;;;2.80;;
61477;SDS011;47345;52.334;10.392;2023-08-21T08:07:07;4.50;;;3.00;;
61477;SDS011;47345;52.334;10.392;2023-08-21T08:09:37;7.90;;;2.50;;
61477;SDS011;47345;52.334;10.392;2023-08-21T08:12:08;4.60;;;2.50;;
61477;SDS011;47345;52.334;10.392;2023-08-21T08:14:40;3.50;;;2.60;;
61477;SDS011;47345;52.334;10.392;2023-08-21T08:17:10;4.20;;;2.60;;
61477;SDS011;47345;52.334;10.392;2023-08-21T08:19:41;5.10;;;2.60;;
61477;SDS011;47345;52.334;10.392;2023-08-21T08:22:12;5.40;;;2.70;;
61477;SDS011;47345;52.334;10.392;2023-08-21T08:24:43;6.40;;;2.70;;
61477;SDS011;47345;52.334;10.392;2023-08-21T08:27:14;6.40;;;2.60;;
61477;SDS011;47345;52.334;10.392;2023-08-21T08:29:45;8.20;;;2.30;;
61477;SDS011;47345;52.334;10.392;2023-08-21T08:32:15;3.30;;;2.30;;
61477;SDS011;47345;52.334;10.392;2023-08-21T08:34:46;6.30;;;2.30;;
61477;SDS011;47345;52.334;10.392;2023-08-21T08:37:18;6.00;;;2.60;;
61477;SDS011;47345;52.334;10.392;2023-08-21T08:39:49;4.20;;;2.20;;
61477;SDS011;47345;52.334;10.392;2023-08-21T08:42:19;7.20;;;2.50;;
61477;SDS011;47345;52.334;10.392;2023-08-21T08:44:51;5.70;;;2.30;;
61477;SDS011;47345;52.334;10.392;2023-08-21T08:47:25;6.30;;;2.60;;
61477;SDS011;47345;52.334;10.392;2023-08-21T08:49:57;6.80;;;2.50;;
61477;SDS011;47345;52.334;10.392;2023-08-21T08:52:34;7.80;;;2.40;;
61477;SDS011;47345;52.334;10.392;2023-08-21T08:55:06;4.50;;;2.00;;
61477;SDS011;47345;52.334;10.392;2023-08-21T08:57:39;4.50;;;1.90;;
61477;SDS011;47345;52.334;10.392;2023-08-21T09:00:10;4.40;;;2.40;;
61477;SDS011;47345;52.334;10.392;2023-08-21T09:02:43;6.00;;;2.10;;
61477;SDS011;47345;52.334;10.392;2023-08-21T09:05:15;5.80;;;2.30;;
61477;SDS011;47345;52.334;10.392;2023-08-21T09:07:46;8.50;;;1.90;;
61477;SDS011;47345;52.334;10.392;2023-08-21T09:13:10;7.40;;;1.90;;
61477;SDS011;47345;52.334;10.392;2023-08-21T09:15:44;8.60;;;2.00;;
61477;SDS011;47345;52.334;10.392;2023-08-21T09:18:17;4.20;;;1.80;;
61477;SDS011;47345;52.334;10.392;2023-08-21T09:20:48;3.80;;;1.80;;
61477;SDS011;47345;52.334;10.392;2023-08-21T09:23:19;5.20;;;1.80;;
61477;SDS011;47345;52.334;10.392;2023-08-21T09:25:50;3.30;;;1.80;;
61477;SDS011;47345;52.334;10.392;2023-08-21T09:28:20;4.20;;;2.00;;
61477;SDS011;47345;52.334;10.392;2023-08-21T09:30:52;5.80;;;2.00;;
61477;SDS011;47345;52.334;10.392;2023-08-21T09:33:23;4.70;;;1.90;;
61477;SDS011;47345;52.334;10.392;2023-08-21T09:35:55;6.60;;;2.20;;
61477;SDS011;47345;52.334;10.392;2023-08-21T09:38:27;5.80;;;2.00;;
61477;SDS011;47345;52.334;10.392;2023-08-21T09:40:57;4.60;;;1.80;;
61477;SDS011;47345;52.334;10.392;2023-08-21T09:43:30;3.90;;;1.80;;
61477;SDS011;47345;52.334;10.392;2023-08-21T09:46:01;6.40;;;2.20;;
61477;SDS011;47345;52.334;10.392;2023-08-21T09:48:32;7.20;;;2.30;;
61477;SDS011;47345;52.334;10.392;2023-08-21T09:51:05;4.20;;;2.10;;
61477;SDS011;47345;52.334;10.392;2023-08-21T09:53:35;8.70;;;2.10;;
61477;SDS011;47345;52.334;10.392;2023-08-21T09:56:07;5.90;;;1.80;;
61477;SDS011;47345;52.334;10.392;2023-08-21T09:58:39;4.60;;;1.70;;
61477;SDS011;47345;52.334;10.392;2023-08-21T10:01:11;5.40;;;2.10;;
61477;SDS011;47345;52.334;10.392;2023-08-21T10:03:45;4.50;;;1.90;;
61477;SDS011;47345;52.334;10.392;2023-08-21T10:06:18;5.00;;;2.10;;
61477;SDS011;47345;52.334;10.392;2023-08-21T10:08:52;4.90;;;1.70;;
61477;SDS011;47345;52.334;10.392;2023-08-21T10:11:25;5.00;;;1.60;;
61477;SDS011;47345;52.334;10.392;2023-08-21T10:13:56;5.90;;;1.90;;
61477;SDS011;47345;52.334;10.392;2023-08-21T10:16:27;5.60;;;1.70;;
61477;SDS011;47345;52.334;10.392;2023-08-21T10:19:01;4.40;;;1.80;;
61477;SDS011;47345;52.334;10.392;2023-08-21T10:21:35;5.50;;;1.90;;
61477;SDS011;47345;52.334;10.392;2023-08-21T10:24:07;5.80;;;1.90;;
61477;SDS011;47345;52.334;10.392;2023-08-21T10:26:39;3.10;;;1.60;;
61477;SDS011;47345;52.334;10.392;2023-08-21T10:29:14;7.60;;;1.90;;
61477;SDS011;47345;52.334;10.392;2023-08-21T10:31:45;5.20;;;1.90;;
61477;SDS011;47345;52.334;10.392;2023-08-21T10:34:32;3.60;;;1.60;;
61477;SDS011;47345;52.334;10.392;2023-08-21T10:37:09;3.90;;;1.60;;
61477;SDS011;47345;52.334;10.392;2023-08-21T10:39:52;5.10;;;2.00;;
61477;SDS011;47345;52.334;10.392;2023-08-21T10:42:38;7.10;;;2.10;;
61477;SDS011;47345;52.334;10.392;2023-08-21T10:45:13;4.40;;;2.00;;
61477;SDS011;47345;52.334;10.392;2023-08-21T10:47:43;3.50;;;1.50;;
61477;SDS011;47345;52.334;10.392;2023-08-21T10:50:15;5.70;;;1.60;;
61477;SDS011;47345;52.334;10.392;2023-08-21T10:52:46;4.50;;;1.80;;
61477;SDS011;47345;52.334;10.392;2023-08-21T10:55:20;5.10;;;1.80;;
61477;SDS011;47345;52.334;10.392;2023-08-21T10:57:51;7.80;;;2.20;;
61477;SDS011;47345;52.334;10.392;2023-08-21T11:00:22;7.10;;;1.70;;
61477;SDS011;47345;52.334;10.392;2023-08-21T11:02:53;4.00;;;2.00;;
61477;SDS011;47345;52.334;10.392;2023-08-21T11:05:23;5.10;;;2.10;;
61477;SDS011;47345;52.334;10.392;2023-08-21T11:07:54;3.70;;;1.70;;
61477;SDS011;47345;52.334;10.392;2023-08-21T11:10:27;5.20;;;1.60;;
61477;SDS011;47345;52.334;10.392;2023-08-21T11:12:59;4.60;;;1.70;;
61477;SDS011;47345;52.334;10.392;2023-08-21T11:15:30;3.70;;;1.70;;
61477;SDS011;47345;52.334;10.392;2023-08-21T11:18:01;4.00;;;1.50;;
61477;SDS011;47345;52.334;10.392;2023-08-21T11:20:33;4.10;;;1.60;;
61477;SDS011;47345;52.334;10.392;2023-08-21T11:23:05;3.90;;;1.50;;
61477;SDS011;47345;52.334;10.392;2023-08-21T11:25:37;4.30;;;1.30;;
61477;SDS011;47345;52.334;10.392;2023-08-21T11:28:09;4.80;;;1.80;;
61477;SDS011;47345;52.334;10.392;2023-08-21T11:30:40;6.50;;;1.40;;
61477;SDS011;47345;52.334;10.392;2023-08-21T11:33:12;6.00;;;1.90;;
61477;SDS011;47345;52.334;10.392;2023-08-21T11:35:43;6.10;;;3.10;;
61477;SDS011;47345;52.334;10.392;2023-08-21T11:38:18;5.30;;;1.60;;
61477;SDS011;47345;52.334;10.392;2023-08-21T11:40:53;4.00;;;1.60;;
61477;SDS011;47345;52.334;10.392;2023-08-21T11:43:34;3.50;;;1.60;;
61477;SDS011;47345;52.334;10.392;2023-08-21T11:46:07;5.00;;;1.70;;
61477;SDS011;47345;52.334;10.392;2023-08-21T11:48:40;7.90;;;1.70;;
61477;SDS011;47345;52.334;10.392;2023-08-21T11:51:12;5.20;;;1.50;;
61477;SDS011;47345;52.334;10.392;2023-08-21T11:53:44;4.10;;;1.40;;
61477;SDS011;47345;52.334;10.392;2023-08-21T11:56:17;6.60;;;1.60;;
61477;SDS011;47345;52.334;10.392;2023-08-21T11:58:51;2.10;;;1.40;;
61477;SDS011;47345;52.334;10.392;2023-08-21T12:01:22;6.10;;;1.80;;
61477;SDS011;47345;52.334;10.392;2023-08-21T12:03:53;3.40;;;1.50;;
61477;SDS011;47345;52.334;10.392;2023-08-21T12:06:24;5.40;;;1.70;;
61477;SDS011;47345;52.334;10.392;2023-08-21T12:09:00;5.30;;;1.50;;
61477;SDS011;47345;52.334;10.392;2023-08-21T12:11:32;2.70;;;1.50;;
61477;SDS011;47345;52.334;10.392;2023-08-21T12:14:06;10.40;;;7.30;;
61477;SDS011;47345;52.334;10.392;2023-08-21T12:16:37;5.10;;;1.90;;
61477;SDS011;47345;52.334;10.392;2023-08-21T12:19:08;4.40;;;1.50;;
61477;SDS011;47345;52.334;10.392;2023-08-21T12:21:39;5.70;;;1.70;;
61477;SDS011;47345;52.334;10.392;2023-08-21T12:24:10;4.50;;;1.50;;
61477;SDS011;47345;52.334;10.392;2023-08-21T12:26:41;2.50;;;1.70;;
61477;SDS011;47345;52.334;10.392;2023-08-21T12:29:18;5.70;;;1.60;;
61477;SDS011;47345;52.334;10.392;2023-08-21T12:31:48;4.80;;;1.70;;
61477;SDS011;47345;52.334;10.392;2023-08-21T12:34:19;4.00;;;1.70;;
61477;SDS011;47345;52.334;10.392;2023-08-21T12:36:50;5.70;;;1.50;;
61477;SDS011;47345;52.334;10.392;2023-08-21T12:39:22;5.40;;;1.50;;
61477;SDS011;47345;52.334;10.392;2023-08-21T12:41:52;4.30;;;1.60;;
61477;SDS011;47345;52.334;10.392;2023-08-21T12:44:23;1.90;;;1.50;;
61477;SDS011;47345;52.334;10.392;2023-08-21T12:46:54;3.50;;;1.60;;
61477;SDS011;47345;52.334;10.392;2023-08-21T12:49:25;4.40;;;1.70;;
61477;SDS011;47345;52.334;10.392;2023-08-21T12:51:56;3.40;;;1.40;;
61477;SDS011;47345;52.334;10.392;2023-08-21T12:54:27;2.20;;;1.40;;
61477;SDS011;47345;52.334;10.392;2023-08-21T12:56:58;5.90;;;1.90;;
61477;SDS011;47345;52.334;10.392;2023-08-21T12:59:29;4.30;;;1.60;;
61477;SDS011;47345;52.334;10.392;2023-08-21T13:02:00;3.10;;;1.50;;
61477;SDS011;47345;52.334;10.392;2023-08-21T13:04:32;4.50;;;1.60;;
61477;SDS011;47345;52.334;10.392;2023-08-21T13:07:04;2.80;;;1.60;;
61477;SDS011;47345;52.334;10.392;2023-08-21T13:09:35;4.40;;;1.50;;
61477;SDS011;47345;52.334;10.392;2023-08-21T13:12:06;5.70;;;1.90;;
61477;SDS011;47345;52.334;10.392;2023-08-21T13:14:37;3.10;;;1.40;;
61477;SDS011;47345;52.334;10.392;2023-08-21T13:17:09;2.90;;;1.30;;
61477;SDS011;47345;52.334;10.392;2023-08-21T13:19:40;4.40;;;1.60;;
61477;SDS011;47345;52.334;10.392;2023-08-21T13:22:11;4.30;;;1.70;;
61477;SDS011;47345;52.334;10.392;2023-08-21T13:24:41;4.70;;;1.80;;
61477;SDS011;47345;52.334;10.392;2023-08-21T13:27:12;6.10;;;1.50;;
61477;SDS011;47345;52.334;10.392;2023-08-21T13:29:45;3.10;;;1.50;;
61477;SDS011;47345;52.334;10.392;2023-08-21T13:32:16;4.20;;;1.70;;
61477;SDS011;47345;52.334;10.392;2023-08-21T13:34:46;4.30;;;1.70;;
61477;SDS011;47345;52.334;10.392;2023-08-21T13:37:17;3.10;;;1.60;;
61477;SDS011;47345;52.334;10.392;2023-08-21T13:39:50;5.10;;;1.90;;
61477;SDS011;47345;52.334;10.392;2023-08-21T13:42:20;3.00;;;1.70;;
61477;SDS011;47345;52.334;10.392;2023-08-21T13:44:51;3.00;;;1.40;;
61477;SDS011;47345;52.334;10.392;2023-08-21T13:47:22;3.80;;;1.60;;
61477;SDS011;47345;52.334;10.392;2023-08-21T13:49:53;2.90;;;1.50;;
61477;SDS011;47345;52.334;10.392;2023-08-21T13:52:24;5.00;;;1.60;;
61477;SDS011;47345;52.334;10.392;2023-08-21T13:54:55;7.40;;;1.90;;
61477;SDS011;47345;52.334;10.392;2023-08-21T13:57:26;2.70;;;1.60;;
61477;SDS011;47345;52.334;10.392;2023-08-21T13:59:57;3.00;;;1.40;;
61477;SDS011;47345;52.334;10.392;2023-08-21T14:02:28;3.30;;;1.50;;
61477;SDS011;47345;52.334;10.392;2023-08-21T14:04:59;5.90;;;1.80;;
61477;SDS011;47345;52.334;10.392;2023-08-21T14:07:30;3.80;;;1.60;;
61477;SDS011;47345;52.334;10.392;2023-08-21T14:10:01;5.70;;;1.40;;
61477;SDS011;47345;52.334;10.392;2023-08-21T14:12:33;4.40;;;1.60;;
61477;SDS011;47345;52.334;10.392;2023-08-21T14:15:10;3.80;;;1.50;;
61477;SDS011;47345;52.334;10.392;2023-08-21T14:17:40;2.10;;;1.30;;
61477;SDS011;47345;52.334;10.392;2023-08-21T14:20:12;3.60;;;1.30;;
61477;SDS011;47345;52.334;10.392;2023-08-21T14:22:45;4.20;;;1.40;;
61477;SDS011;47345;52.334;10.392;2023-08-21T14:25:16;3.70;;;1.40;;
61477;SDS011;47345;52.334;10.392;2023-08-21T14:27:48;1.60;;;1.20;;
61477;SDS011;47345;52.334;10.392;2023-08-21T14:30:19;1.90;;;1.20;;
61477;SDS011;47345;52.334;10.392;2023-08-21T14:32:49;4.30;;;1.50;;
61477;SDS011;47345;52.334;10.392;2023-08-21T14:35:20;2.80;;;1.50;;
61477;SDS011;47345;52.334;10.392;2023-08-21T14:37:51;3.00;;;1.60;;
61477;SDS011;47345;52.334;10.392;2023-08-21T14:40:22;4.40;;;1.50;;
61477;SDS011;47345;52.334;10.392;2023-08-21T14:42:54;2.60;;;1.40;;
61477;SDS011;47345;52.334;10.392;2023-08-21T14:45:24;2.50;;;1.20;;
61477;SDS011;47345;52.334;10.392;2023-08-21T14:47:55;2.60;;;1.40;;
61477;SDS011;47345;52.334;10.392;2023-08-21T14:50:26;4.90;;;1.50;;
61477;SDS011;47345;52.334;10.392;2023-08-21T14:52:56;5.20;;;1.50;;
61477;SDS011;47345;52.334;10.392;2023-08-21T14:55:27;2.80;;;1.50;;
61477;SDS011;47345;52.334;10.392;2023-08-21T14:57:57;2.00;;;1.40;;
61477;SDS011;47345;52.334;10.392;2023-08-21T15:00:33;3.50;;;1.50;;